Time;durP1;ratioP1;P1;durP2;ratioP2;P2;SDS_P1;SDS_P2;PMS_P1;PMS_P2;Temp;Humidity;BMP_temperature;BMP_pressure;BME280_temperature;BME280_humidity;BME280_pressure;Samples;Min_cycle;Max_cycle;Signal;HPM_P1;HPM_P2
2024/02/01 00:01:45;;;;;;;80.90;49.20;;;;;;;4.83;68.93;99943.38;232071;198;136898;-59
2024/02/01 00:06:51;;;;;;;75.70;46.20;;;;;;;4.89;69.11;99934.42;232279;198;138293;-59
2024/02/01 00:11:55;;;;;;;77.10;45.50;;;;;;;4.91;68.86;99923.83;232214;203;151133;-59
2024/02/01 00:16:58;;;;;;;78.50;46.20;;;;;;;4.91;69.02;99921.39;232114;200;138799;-59
2024/02/01 00:22:02;;;;;;;70.30;44.30;;;;;;;4.91;69.21;99902.41;232198;204;137147;-58
2024/02/01 00:27:05;;;;;;;77.10;46.50;;;;;;;4.92;69.14;99881.08;232098;201;151946;-60
2024/02/01 00:32:08;;;;;;;71.50;44.60;;;;;;;4.94;69.23;99885.26;232192;203;136439;-59
2024/02/01 00:37:11;;;;;;;77.10;44.70;;;;;;;4.97;69.26;99869.53;232173;197;137071;-59
2024/02/01 00:42:14;;;;;;;79.80;43.20;;;;;;;5.01;69.23;99856.06;232030;197;152125;-59
2024/02/01 00:47:18;;;;;;;84.00;47.90;;;;;;;5.08;69.14;99841.81;232026;203;137569;-59
2024/02/01 00:52:21;;;;;;;79.60;49.00;;;;;;;5.10;68.97;99830.48;231949;201;136813;-59
2024/02/01 00:57:24;;;;;;;81.50;47.90;;;;;;;5.12;68.94;99827.98;231980;204;152206;-59
2024/02/01 01:02:27;;;;;;;82.80;48.90;;;;;;;5.07;68.81;99820.55;232104;204;137997;-59
2024/02/01 01:07:30;;;;;;;81.70;48.80;;;;;;;5.01;68.63;99813.89;231872;201;137712;-59
2024/02/01 01:12:33;;;;;;;79.00;48.30;;;;;;;4.98;68.94;99816.05;232093;204;151239;-59
2024/02/01 01:17:38;;;;;;;84.20;47.50;;;;;;;4.94;69.04;99807.36;232056;196;140235;-58
2024/02/01 01:22:41;;;;;;;83.70;49.40;;;;;;;4.90;69.07;99803.25;232142;203;137545;-58
2024/02/01 01:27:45;;;;;;;84.60;50.00;;;;;;;4.86;69.31;99788.79;232050;203;151274;-60
2024/02/01 01:32:48;;;;;;;85.70;50.60;;;;;;;4.85;69.36;99782.28;231856;204;137135;-59
2024/02/01 01:37:52;;;;;;;80.60;49.00;;;;;;;4.84;69.33;99767.38;232029;203;139374;-59
2024/02/01 01:42:56;;;;;;;82.00;49.30;;;;;;;4.78;69.49;99759.10;232223;203;151478;-59
2024/02/01 01:47:59;;;;;;;77.40;47.40;;;;;;;4.78;69.47;99746.27;232086;200;136826;-58
2024/02/01 01:53:04;;;;;;;77.40;46.50;;;;;;;4.73;69.59;99741.30;232130;203;136715;-60
2024/02/01 01:58:08;;;;;;;81.30;45.50;;;;;;;4.74;69.70;99740.39;232089;203;151373;-59
2024/02/01 02:03:12;;;;;;;79.90;47.70;;;;;;;4.86;69.50;99728.64;232200;204;137896;-58
2024/02/01 02:08:16;;;;;;;75.70;45.30;;;;;;;4.93;69.23;99714.20;232248;204;137606;-59
2024/02/01 02:13:20;;;;;;;74.60;44.20;;;;;;;4.94;68.93;99695.02;232329;203;152666;-58
2024/02/01 02:18:23;;;;;;;74.10;45.40;;;;;;;4.93;68.84;99685.02;232173;203;139302;-58
2024/02/01 02:23:28;;;;;;;73.90;43.70;;;;;;;4.89;68.47;99678.64;232195;197;137073;-59
2024/02/01 02:28:35;;;;;;;76.90;44.60;;;;;;;4.72;67.94;99672.96;232122;203;152498;-59
2024/02/01 02:33:39;;;;;;;74.80;44.50;;;;;;;4.58;68.17;99662.98;232214;197;137611;-59
2024/02/01 02:38:42;;;;;;;74.90;44.50;;;;;;;4.49;68.39;99654.60;232141;204;140424;-60
2024/02/01 02:43:45;;;;;;;67.50;42.00;;;;;;;4.43;68.36;99640.90;232139;202;151322;-59
2024/02/01 02:48:48;;;;;;;70.70;42.40;;;;;;;4.36;68.94;99628.96;232248;204;136882;-60
2024/02/01 02:53:52;;;;;;;71.70;43.30;;;;;;;4.34;69.20;99619.02;232184;204;136816;-59
2024/02/01 02:58:55;;;;;;;70.10;42.80;;;;;;;4.32;69.11;99612.92;232021;201;150517;-60
2024/02/01 03:03:58;;;;;;;68.50;42.00;;;;;;;4.22;69.04;99606.36;232144;197;136398;-59
2024/02/01 03:09:01;;;;;;;75.90;44.50;;;;;;;4.12;69.44;99599.77;231888;197;138517;-59
2024/02/01 03:14:11;;;;;;;71.40;42.50;;;;;;;4.09;69.90;99598.80;231745;197;151432;-59
2024/02/01 03:19:14;;;;;;;75.20;45.10;;;;;;;4.17;69.88;99593.66;232263;203;137987;-59
2024/02/01 03:24:21;;;;;;;71.80;46.10;;;;;;;4.19;69.76;99585.36;232204;204;137637;-59
2024/02/01 03:29:26;;;;;;;75.30;44.50;;;;;;;4.18;69.87;99588.20;232220;204;151348;-58
2024/02/01 03:34:29;;;;;;;72.10;44.40;;;;;;;4.19;69.84;99598.86;232061;203;136959;-59
2024/02/01 03:39:32;;;;;;;66.70;39.40;;;;;;;4.19;69.71;99595.88;232053;201;136766;-60
2024/02/01 03:44:39;;;;;;;63.50;39.10;;;;;;;4.21;69.97;99602.50;232206;200;151426;-59
2024/02/01 03:49:43;;;;;;;61.60;36.10;;;;;;;4.28;70.13;99601.11;232175;204;137044;-62
2024/02/01 03:54:47;;;;;;;59.70;36.50;;;;;;;4.28;70.02;99595.48;232114;204;138087;-59
2024/02/01 03:59:51;;;;;;;57.00;35.20;;;;;;;4.29;70.18;99596.15;232030;197;151555;-60
2024/02/01 04:04:54;;;;;;;58.10;35.20;;;;;;;4.33;70.26;99602.19;232063;204;138300;-60
2024/02/01 04:09:57;;;;;;;61.50;35.10;;;;;;;4.38;70.06;99601.53;232185;203;136595;-60
2024/02/01 04:15:02;;;;;;;53.20;32.20;;;;;;;4.40;69.93;99594.96;232254;203;152207;-61
2024/02/01 04:20:06;;;;;;;55.70;34.40;;;;;;;4.39;69.88;99581.63;232176;200;139214;-59
2024/02/01 04:25:09;;;;;;;59.00;35.90;;;;;;;4.45;69.56;99572.65;232220;204;137727;-60
2024/02/01 04:30:13;;;;;;;56.20;33.90;;;;;;;4.55;69.47;99568.02;232109;197;151863;-59
2024/02/01 04:35:16;;;;;;;58.40;34.60;;;;;;;4.59;69.12;99566.65;232140;197;136738;-59
2024/02/01 04:40:21;;;;;;;51.40;32.90;;;;;;;4.56;69.06;99562.36;232133;204;137203;-61
2024/02/01 04:45:25;;;;;;;182.80;121.00;;;;;;;4.64;70.92;99558.80;232076;203;151606;-61
2024/02/01 04:50:28;;;;;;;287.10;186.30;;;;;;;4.62;69.14;99556.38;231996;197;137614;-61
2024/02/01 04:55:31;;;;;;;66.30;41.00;;;;;;;4.64;69.05;99556.66;232151;197;137841;-60
2024/02/01 05:00:37;;;;;;;;;;;;;;;4.62;69.01;99554.96;232298;204;152030;-60
2024/02/01 05:05:45;;;;;;;58.00;37.20;;;;;;;4.61;68.96;99559.39;232214;202;135762;-61
2024/02/01 05:10:49;;;;;;;61.50;35.50;;;;;;;4.62;68.60;99559.17;232175;203;137334;-60
2024/02/01 05:15:52;;;;;;;51.50;32.20;;;;;;;4.66;68.56;99563.82;232260;204;152220;-61
2024/02/01 05:20:55;;;;;;;49.10;29.90;;;;;;;4.60;68.25;99572.10;232196;196;136905;-60
2024/02/01 05:25:59;;;;;;;50.80;31.40;;;;;;;4.64;68.25;99576.34;232134;204;138809;-61
2024/02/01 05:31:03;;;;;;;58.10;34.90;;;;;;;4.72;67.92;99583.15;232143;197;152219;-60
2024/02/01 05:36:06;;;;;;;47.70;28.80;;;;;;;4.68;67.91;99584.33;231944;197;273818;-60
2024/02/01 05:41:11;;;;;;;43.00;28.20;;;;;;;4.73;68.10;99573.45;232134;201;140529;-61
2024/02/01 05:46:15;;;;;;;39.10;23.60;;;;;;;4.82;68.04;99563.86;232144;204;152095;-60
2024/02/01 05:51:19;;;;;;;43.10;27.60;;;;;;;4.87;68.03;99559.30;232102;200;136818;-60
2024/02/01 05:56:22;;;;;;;42.70;26.80;;;;;;;4.83;67.66;99558.74;232093;204;137213;-60
2024/02/01 06:01:26;;;;;;;47.40;29.20;;;;;;;4.75;67.46;99557.92;232265;204;152199;-62
2024/02/01 06:06:30;;;;;;;44.50;27.10;;;;;;;4.59;67.14;99559.98;232194;197;136475;-63
2024/02/01 06:11:34;;;;;;;45.90;28.20;;;;;;;4.41;67.31;99565.40;232111;197;137787;-62
2024/02/01 06:16:37;;;;;;;40.40;25.70;;;;;;;4.28;67.58;99564.04;232030;204;152779;-61
2024/02/01 06:21:41;;;;;;;44.00;27.40;;;;;;;4.17;67.69;99564.32;232134;204;137904;-61
2024/02/01 06:26:45;;;;;;;49.90;30.10;;;;;;;4.09;67.91;99561.75;232041;203;137467;-62
2024/02/01 06:31:49;;;;;;;45.50;28.50;;;;;;;4.06;68.52;99558.66;232169;200;151576;-60
2024/02/01 06:36:58;;;;;;;53.40;29.20;;;;;;;4.10;68.41;99550.48;232257;204;136661;-61
2024/02/01 06:42:24;;;;;;;32.10;20.00;;;;;;;4.06;68.38;99547.42;232141;201;136805;-61
2024/02/01 06:47:36;;;;;;;29.90;19.10;;;;;;;4.22;69.19;99548.58;232122;197;151239;-62
2024/02/01 06:52:43;;;;;;;29.60;16.70;;;;;;;4.46;69.65;99541.36;232132;204;138473;-62
2024/02/01 07:03:12;;;;;;;21.80;14.10;;;;;;;5.10;69.25;99515.54;232081;204;151542;-60
2024/02/01 07:08:26;;;;;;;21.40;13.20;;;;;;;5.35;69.17;99505.02;232219;197;137916;-60
2024/02/01 07:13:47;;;;;;;18.50;12.40;;;;;;;5.64;68.73;99496.11;232242;204;137869;-61
2024/02/01 07:19:10;;;;;;;16.70;10.90;;;;;;;5.81;68.26;99501.52;232208;204;151554;-60
2024/02/01 07:24:27;;;;;;;18.20;11.80;;;;;;;5.97;68.04;99499.74;232267;203;137471;-60
2024/02/01 08:02:23;;;;;;;19.60;12.00;;;;;;;6.79;66.18;99463.70;232004;203;136505;-60
2024/02/01 08:07:46;;;;;;;16.40;11.10;;;;;;;6.94;65.96;99454.81;232175;200;152196;-61
2024/02/01 08:12:50;;;;;;;20.20;11.40;;;;;;;7.07;65.65;99457.81;232223;203;136443;-60
2024/02/01 08:17:55;;;;;;;19.10;11.30;;;;;;;7.23;65.36;99453.23;232179;204;137983;-60
2024/02/01 08:22:58;;;;;;;22.70;13.00;;;;;;;7.42;65.10;99454.73;232113;203;152184;-60
2024/02/01 08:28:06;;;;;;;21.30;13.80;;;;;;;7.60;64.44;99454.67;232068;197;136999;-60
2024/02/01 08:33:15;;;;;;;25.00;15.00;;;;;;;7.67;63.83;99457.20;232107;204;137326;-60
2024/02/01 08:38:19;;;;;;;24.90;16.00;;;;;;;7.67;63.70;99469.55;232118;197;152106;-60
2024/02/01 08:43:23;;;;;;;18.70;13.80;;;;;;;7.67;63.61;99472.42;232252;203;137912;-59
2024/02/01 08:48:26;;;;;;;19.60;12.40;;;;;;;7.64;63.71;99470.61;232053;198;136893;-60
2024/02/01 08:53:29;;;;;;;18.00;12.50;;;;;;;7.67;63.82;99471.50;231904;197;151929;-59
2024/02/01 08:58:32;;;;;;;17.00;10.90;;;;;;;7.78;63.78;99468.04;232131;200;137418;-59
2024/02/01 09:03:36;;;;;;;17.90;11.70;;;;;;;7.87;63.46;99472.59;232035;204;139413;-59
2024/02/01 09:08:40;;;;;;;17.30;11.20;;;;;;;7.94;63.17;99467.48;232181;203;151946;-59
2024/02/01 09:13:46;;;;;;;16.30;11.00;;;;;;;8.02;63.01;99472.60;232095;200;137573;-59
2024/02/01 09:18:50;;;;;;;18.40;11.80;;;;;;;8.08;62.48;99468.33;232132;204;137519;-60
2024/02/01 09:23:54;;;;;;;15.80;11.10;;;;;;;8.05;62.21;99477.43;232139;203;151429;-60
2024/02/01 09:28:57;;;;;;;22.50;11.80;;;;;;;8.02;62.22;99469.96;231955;204;136761;-60
2024/02/01 09:34:01;;;;;;;17.60;11.50;;;;;;;8.03;62.20;99474.68;232049;200;137187;-62
2024/02/01 09:39:05;;;;;;;20.00;12.00;;;;;;;8.09;62.11;99477.98;232079;200;153813;-60
2024/02/01 09:44:09;;;;;;;19.30;11.80;;;;;;;8.18;61.95;99475.61;231950;204;140840;-60
2024/02/01 09:49:13;;;;;;;21.60;11.40;;;;;;;8.22;61.74;99473.69;232184;204;138234;-59
2024/02/01 09:54:27;;;;;;;18.00;12.00;;;;;;;8.30;61.76;99467.45;231956;200;151938;-60
2024/02/01 09:59:37;;;;;;;21.90;12.70;;;;;;;8.37;61.34;99467.72;232145;197;138445;-58
2024/02/01 10:04:41;;;;;;;21.90;11.80;;;;;;;8.38;61.60;99465.72;231584;200;137133;-57
2024/02/01 10:09:51;;;;;;;18.70;11.80;;;;;;;8.38;61.35;99464.67;231915;204;151256;-59
2024/02/01 10:14:58;;;;;;;18.60;12.30;;;;;;;8.33;61.39;99468.06;232153;204;137796;-58
2024/02/01 10:20:01;;;;;;;17.60;11.80;;;;;;;8.27;62.01;99473.42;232130;202;138212;-58
2024/02/01 10:25:09;;;;;;;19.40;11.20;;;;;;;8.20;62.94;99473.77;232283;203;152649;-59
2024/02/01 10:30:12;;;;;;;18.20;11.70;;;;;;;8.15;63.44;99481.94;231921;200;138352;-63
2024/02/01 10:35:18;;;;;;;25.80;16.20;;;;;;;8.15;64.32;99483.54;232013;200;137341;-60
2024/02/01 10:40:26;;;;;;;;;;;;;;;8.01;65.20;99486.64;231991;204;152087;-59
2024/02/01 10:45:36;;;;;;;16.70;11.60;;;;;;;7.89;66.00;99473.56;232148;197;137220;-60
2024/02/01 10:50:39;;;;;;;17.50;10.70;;;;;;;7.79;66.47;99477.14;231967;196;137331;-59
2024/02/01 10:55:48;;;;;;;17.40;11.40;;;;;;;7.74;66.80;99478.29;231901;200;152128;-59
2024/02/01 11:00:52;;;;;;;16.80;11.70;;;;;;;7.79;66.94;99475.91;231409;198;137774;-58
2024/02/01 11:05:59;;;;;;;46.20;35.30;;;;;;;7.82;67.38;99475.80;231988;204;137950;-59
2024/02/01 11:11:15;;;;;;;19.30;14.50;;;;;;;7.84;67.80;99474.82;231855;197;151492;-60
2024/02/01 11:16:19;;;;;;;197.20;122.20;;;;;;;7.82;67.48;99478.98;231877;199;137892;-60
2024/02/01 11:21:29;;;;;;;21.70;15.40;;;;;;;7.71;67.67;99471.86;231946;204;138504;-59
2024/02/01 11:26:41;;;;;;;19.30;13.30;;;;;;;7.61;67.95;99463.85;232061;204;151568;-59
2024/02/01 11:31:45;;;;;;;22.10;15.10;;;;;;;7.53;68.87;99465.73;231888;200;138391;-59
2024/02/01 11:36:52;;;;;;;19.00;12.40;;;;;;;7.51;68.91;99469.23;231942;198;137581;-60
2024/02/01 11:41:57;;;;;;;15.30;10.70;;;;;;;7.43;68.90;99472.38;231845;196;152171;-59
2024/02/01 11:47:04;;;;;;;15.60;10.40;;;;;;;7.41;68.96;99468.59;231926;201;138207;-60
2024/02/01 11:52:43;;;;;;;18.20;12.20;;;;;;;7.44;68.95;99467.93;231850;204;137205;-60
2024/02/01 11:57:47;;;;;;;17.00;11.70;;;;;;;7.47;68.70;99466.53;232012;204;152260;-59
2024/02/01 12:02:51;;;;;;;18.40;13.10;;;;;;;7.44;68.66;99465.64;231954;204;140308;-61
2024/02/01 12:07:55;;;;;;;25.40;14.20;;;;;;;7.38;68.98;99457.60;231950;204;137560;-59
2024/02/01 12:12:59;;;;;;;22.60;15.30;;;;;;;7.38;69.28;99453.00;232110;203;151326;-60
2024/02/01 12:18:08;;;;;;;197.50;104.80;;;;;;;7.40;69.53;99447.62;231931;197;136731;-60
2024/02/01 12:23:14;;;;;;;21.20;14.40;;;;;;;7.41;69.25;99440.36;232208;203;137551;-59
2024/02/01 12:28:17;;;;;;;21.20;14.30;;;;;;;7.39;69.37;99435.85;232000;203;152588;-61
2024/02/01 12:33:24;;;;;;;19.90;13.80;;;;;;;7.40;69.50;99432.98;232179;203;138412;-59
2024/02/01 12:38:40;;;;;;;23.70;16.50;;;;;;;7.35;69.58;99430.69;231932;200;138936;-59
2024/02/01 12:43:44;;;;;;;25.40;18.00;;;;;;;7.33;70.10;99427.97;232247;203;151456;-60
2024/02/01 12:48:48;;;;;;;27.50;18.50;;;;;;;7.30;70.50;99429.66;231968;204;136752;-61
2024/02/01 12:53:51;;;;;;;24.40;16.50;;;;;;;7.24;70.75;99430.98;231920;201;137679;-60
2024/02/01 12:58:56;;;;;;;24.80;16.50;;;;;;;7.17;70.99;99437.44;232065;203;152021;-60
2024/02/01 13:04:03;;;;;;;26.20;16.10;;;;;;;7.18;71.22;99442.17;232038;203;137074;-61
2024/02/01 13:09:08;;;;;;;22.60;15.60;;;;;;;7.16;71.70;99442.61;232027;201;137960;-61
2024/02/01 13:14:12;;;;;;;22.70;15.80;;;;;;;7.22;71.81;99439.19;232067;204;151843;-61
2024/02/01 13:19:15;;;;;;;22.80;16.10;;;;;;;7.22;72.06;99434.77;231986;200;139240;-60
2024/02/01 13:24:19;;;;;;;22.90;14.70;;;;;;;7.18;72.16;99431.96;231924;202;137091;-59
2024/02/01 13:29:23;;;;;;;20.70;13.30;;;;;;;7.14;72.61;99432.10;232075;203;151253;-60
2024/02/01 13:34:27;;;;;;;20.10;14.10;;;;;;;7.23;72.60;99435.06;232079;203;138216;-60
2024/02/01 13:39:33;;;;;;;21.90;14.40;;;;;;;7.25;72.54;99431.63;232083;197;137838;-60
2024/02/01 13:44:37;;;;;;;20.80;13.60;;;;;;;7.32;72.62;99430.30;232068;204;151474;-60
2024/02/01 13:49:40;;;;;;;18.30;13.00;;;;;;;7.29;72.54;99433.58;232127;204;137937;-60
2024/02/01 13:54:47;;;;;;;17.10;12.20;;;;;;;7.24;72.76;99437.00;232245;197;137502;-61
2024/02/01 13:59:50;;;;;;;18.10;11.90;;;;;;;7.22;73.02;99439.33;231924;198;152592;-62
2024/02/01 14:04:53;;;;;;;16.30;11.90;;;;;;;7.24;73.01;99446.67;232048;204;137883;-61
2024/02/01 14:09:57;;;;;;;18.50;13.00;;;;;;;7.33;72.93;99452.67;231975;197;138328;-61
2024/02/01 14:15:01;;;;;;;18.50;12.50;;;;;;;7.40;72.85;99445.48;231790;197;151378;-62
2024/02/01 14:20:14;;;;;;;;;;;;;;;7.40;73.17;99449.54;231973;197;138138;-61
2024/02/01 14:25:18;;;;;;;16.60;11.80;;;;;;;7.35;72.91;99458.75;232215;203;136907;-61
2024/02/01 14:30:22;;;;;;;17.10;12.70;;;;;;;7.25;73.30;99464.64;231939;201;151799;-60
2024/02/01 14:35:26;;;;;;;15.20;11.10;;;;;;;7.17;73.57;99459.32;232025;204;137161;-62
2024/02/01 14:40:29;;;;;;;16.60;10.70;;;;;;;7.13;73.67;99456.50;231970;204;141130;-60
2024/02/01 14:45:32;;;;;;;18.20;11.60;;;;;;;7.17;73.64;99449.79;231998;196;153496;-59
2024/02/01 14:50:36;;;;;;;16.40;11.70;;;;;;;7.24;73.69;99458.72;232034;203;140076;-61
2024/02/01 14:55:39;;;;;;;14.90;11.10;;;;;;;7.17;73.80;99461.64;232085;204;137111;-59
2024/02/01 15:00:43;;;;;;;29.80;20.00;;;;;;;7.14;74.25;99468.45;232114;203;151355;-61
2024/02/01 15:05:46;;;;;;;19.20;12.00;;;;;;;7.24;74.29;99473.16;232049;200;137145;-60
2024/02/01 15:10:49;;;;;;;17.00;11.40;;;;;;;7.14;74.10;99474.98;231816;204;138062;-64
2024/02/01 15:15:53;;;;;;;92.70;69.80;;;;;;;7.07;74.37;99478.05;231942;202;152604;-60
2024/02/01 15:21:11;;;;;;;18.30;12.90;;;;;;;7.18;74.83;99482.05;231699;197;138848;-60
2024/02/01 15:26:16;;;;;;;17.70;11.80;;;;;;;7.24;74.26;99481.30;231843;202;136967;-58
2024/02/01 15:31:22;;;;;;;20.30;12.00;;;;;;;7.29;73.91;99492.36;232037;200;150987;-62
2024/02/01 15:36:26;;;;;;;16.40;12.30;;;;;;;7.20;73.85;99501.02;231898;204;138038;-60
2024/02/01 15:41:29;;;;;;;14.90;11.40;;;;;;;7.14;74.00;99514.52;232065;200;137866;-60
2024/02/01 15:46:36;;;;;;;16.20;11.40;;;;;;;7.19;74.17;99513.97;232047;204;152335;-59
2024/02/01 15:51:42;;;;;;;14.20;10.20;;;;;;;7.25;73.75;99517.75;232003;204;139800;-59
2024/02/01 15:56:48;;;;;;;15.20;10.50;;;;;;;7.20;73.23;99530.70;232041;200;141652;-60
2024/02/01 16:01:51;;;;;;;16.40;11.30;;;;;;;7.18;72.70;99532.33;232011;201;151356;-62
2024/02/01 16:06:55;;;;;;;189.70;145.70;;;;;;;7.17;72.08;99538.72;232033;204;136781;-60
2024/02/01 16:11:58;;;;;;;20.40;14.80;;;;;;;7.15;72.09;99543.77;231820;204;138185;-56
2024/02/01 16:17:02;;;;;;;19.00;12.30;;;;;;;7.05;71.52;99545.23;231891;201;153413;-59
2024/02/01 16:22:07;;;;;;;16.60;11.80;;;;;;;7.01;71.26;99551.39;231880;203;137374;-58
2024/02/01 16:27:17;;;;;;;15.30;10.70;;;;;;;7.00;71.06;99558.65;232029;204;136443;-57
2024/02/01 16:32:34;;;;;;;14.80;10.30;;;;;;;6.90;70.82;99572.44;232090;197;151427;-56
2024/02/01 16:37:37;;;;;;;14.60;10.10;;;;;;;6.86;70.96;99584.77;231963;204;138795;-57
2024/02/01 16:42:43;;;;;;;17.70;12.00;;;;;;;6.90;71.17;99595.38;232135;197;138108;-57
2024/02/01 16:47:53;;;;;;;177.20;130.50;;;;;;;6.99;71.00;99600.49;232075;200;151897;-57
2024/02/01 16:52:58;;;;;;;23.80;16.90;;;;;;;7.20;71.99;99602.88;231914;204;137929;-58
2024/02/01 16:58:02;;;;;;;21.00;14.40;;;;;;;7.31;71.03;99608.23;231948;197;136895;-58
2024/02/01 17:03:06;;;;;;;18.50;14.00;;;;;;;7.24;70.63;99619.09;232015;197;152961;-59
2024/02/01 17:08:45;;;;;;;31.80;21.70;;;;;;;7.16;70.62;99624.38;232055;203;137988;-58
2024/02/01 17:13:50;;;;;;;20.60;14.80;;;;;;;7.10;70.65;99631.27;232132;203;137057;-58
2024/02/01 17:18:56;;;;;;;19.30;14.30;;;;;;;7.06;70.53;99641.51;232037;197;152058;-58
2024/02/01 17:24:02;;;;;;;17.30;11.20;;;;;;;7.01;70.64;99643.63;231867;204;139073;-58
2024/02/01 17:29:17;;;;;;;14.20;10.10;;;;;;;7.00;70.38;99641.73;231967;201;138502;-59
2024/02/01 17:34:31;;;;;;;17.70;11.30;;;;;;;7.01;70.16;99639.23;231826;200;152505;-59
2024/02/01 17:39:45;;;;;;;17.40;11.00;;;;;;;7.04;70.14;99637.15;232022;201;153803;-59
2024/02/01 17:44:49;;;;;;;19.70;11.90;;;;;;;7.12;69.86;99641.95;231977;204;138898;-59
2024/02/01 17:49:53;;;;;;;19.50;13.70;;;;;;;7.09;69.85;99646.85;232123;203;154969;-59
2024/02/01 17:54:59;;;;;;;20.90;15.20;;;;;;;7.09;70.23;99648.42;232268;196;137042;-58
2024/02/01 18:00:05;;;;;;;24.40;16.60;;;;;;;7.06;70.44;99652.98;232220;201;136619;-59
2024/02/01 18:05:09;;;;;;;136.00;104.60;;;;;;;7.03;70.83;99650.96;232182;200;151315;-58
2024/02/01 18:10:13;;;;;;;23.50;16.90;;;;;;;7.08;71.29;99650.59;232170;203;137943;-58
2024/02/01 18:15:19;;;;;;;19.90;14.00;;;;;;;7.09;70.88;99641.91;232143;203;140064;-51
2024/02/01 18:20:23;;;;;;;30.30;19.80;;;;;;;7.14;71.66;99648.09;232173;203;151345;-58
2024/02/01 18:25:33;;;;;;;24.40;15.80;;;;;;;7.24;71.14;99644.85;231480;203;137214;-57
2024/02/01 18:30:39;;;;;;;25.30;15.30;;;;;;;7.22;70.96;99645.13;232047;203;137598;-58
2024/02/01 18:35:43;;;;;;;;;;;;;;;7.19;71.07;99643.83;232148;201;151687;-58
2024/02/01 18:40:49;;;;;;;22.40;15.70;;;;;;;7.13;71.05;99646.88;232216;203;135508;-60
2024/02/01 18:45:53;;;;;;;22.00;16.10;;;;;;;7.08;71.23;99649.73;232228;203;137237;-58
2024/02/01 18:51:01;;;;;;;23.80;15.60;;;;;;;7.04;71.13;99653.56;232203;203;151825;-58
2024/02/01 18:56:10;;;;;;;22.90;15.80;;;;;;;7.02;71.29;99656.83;232245;201;137290;-58
2024/02/01 19:01:21;;;;;;;25.40;16.60;;;;;;;6.99;71.32;99654.11;232328;200;138856;-58
2024/02/01 19:06:27;;;;;;;24.80;17.30;;;;;;;7.03;71.11;99655.02;232138;196;151599;-58
2024/02/01 19:11:36;;;;;;;26.80;17.00;;;;;;;7.09;71.06;99657.45;232149;197;137231;-61
2024/02/01 19:16:39;;;;;;;27.40;17.60;;;;;;;7.04;70.88;99654.95;232119;200;137994;-57
2024/02/01 19:21:43;;;;;;;32.20;17.30;;;;;;;7.04;70.90;99656.04;232094;200;153209;-58
2024/02/01 19:26:46;;;;;;;26.80;17.80;;;;;;;7.04;70.75;99656.39;231985;203;137806;-56
2024/02/01 19:31:50;;;;;;;27.10;18.10;;;;;;;7.04;70.65;99656.56;232211;203;136691;-58
2024/02/01 19:36:54;;;;;;;27.10;18.10;;;;;;;7.01;70.46;99663.21;232340;203;151707;-56
2024/02/01 19:41:57;;;;;;;33.30;17.40;;;;;;;6.94;70.41;99659.42;231926;200;136913;-55
2024/02/01 19:47:01;;;;;;;28.90;17.70;;;;;;;6.92;70.37;99657.92;232171;199;137409;-55
2024/02/01 19:52:05;;;;;;;301.00;179.20;;;;;;;6.92;70.66;99657.55;232171;201;152118;-60
2024/02/01 19:57:08;;;;;;;30.50;19.80;;;;;;;7.01;70.37;99657.42;232127;200;137262;-59
2024/02/01 20:02:12;;;;;;;29.30;17.70;;;;;;;7.01;70.06;99658.64;232340;203;136945;-58
2024/02/01 20:07:15;;;;;;;30.50;17.60;;;;;;;6.89;69.82;99659.42;232470;203;151489;-59
2024/02/01 20:12:20;;;;;;;28.50;16.70;;;;;;;6.86;69.81;99657.42;232255;203;138160;-59
2024/02/01 20:17:24;;;;;;;28.10;16.90;;;;;;;6.83;69.74;99654.35;232000;200;138419;-59
2024/02/01 20:22:27;;;;;;;29.60;16.10;;;;;;;6.81;69.59;99656.52;232250;203;151576;-58
2024/02/01 20:27:38;;;;;;;28.00;16.60;;;;;;;6.78;69.45;99665.45;232190;203;137362;-58
2024/02/01 20:32:41;;;;;;;25.20;15.60;;;;;;;6.72;69.52;99674.87;232274;203;138222;-58
2024/02/01 20:38:10;;;;;;;27.50;16.60;;;;;;;6.73;69.55;99680.66;232316;200;152129;-59
2024/02/01 20:43:15;;;;;;;26.50;16.70;;;;;;;6.72;69.45;99676.98;232351;203;136822;-58
2024/02/01 20:48:44;;;;;;;27.00;16.60;;;;;;;6.73;69.26;99677.84;232346;203;137297;-59
2024/02/01 20:53:54;;;;;;;27.20;17.10;;;;;;;6.74;69.38;99671.79;232047;196;152116;-60
2024/02/01 20:59:04;;;;;;;25.70;16.30;;;;;;;6.76;69.04;99668.89;232121;202;137089;-59
2024/02/01 21:04:25;;;;;;;28.50;16.60;;;;;;;6.78;68.88;99673.25;232107;203;137396;-58
2024/02/01 21:09:44;;;;;;;28.60;17.00;;;;;;;6.75;68.79;99682.51;232307;203;151359;-59
2024/02/01 21:14:48;;;;;;;27.80;16.60;;;;;;;6.76;68.67;99685.11;232143;200;137338;-59
2024/02/01 21:19:54;;;;;;;23.90;13.90;;;;;;;6.76;68.43;99683.72;232327;200;137588;-59
2024/02/01 21:24:57;;;;;;;22.10;12.90;;;;;;;6.64;67.94;99685.03;232268;203;151779;-59
2024/02/01 21:30:02;;;;;;;20.50;11.30;;;;;;;6.60;67.75;99686.39;232100;203;137970;-60
2024/02/01 21:35:19;;;;;;;;;;;;;;;6.66;67.29;99692.52;232103;198;138310;-60
2024/02/01 21:40:38;;;;;;;16.70;9.60;;;;;;;6.64;66.73;99697.73;232306;196;153529;-59
2024/02/01 21:45:50;;;;;;;18.00;9.00;;;;;;;6.59;66.46;99700.38;232185;199;137022;-59
2024/02/01 21:50:53;;;;;;;20.30;9.40;;;;;;;6.55;65.90;99715.84;232175;203;136662;-59
2024/02/01 21:55:57;;;;;;;15.30;8.10;;;;;;;6.54;65.81;99719.41;232108;203;151920;-59
2024/02/01 22:01:00;;;;;;;18.70;8.30;;;;;;;6.50;65.57;99718.84;232403;196;137992;-60
2024/02/01 22:06:05;;;;;;;17.50;7.90;;;;;;;6.50;65.37;99717.58;232196;203;140067;-60
2024/02/01 22:11:09;;;;;;;19.40;8.40;;;;;;;6.43;64.91;99717.13;232205;203;150592;-60
2024/02/01 22:16:13;;;;;;;15.00;6.90;;;;;;;6.38;65.16;99731.40;232301;203;137188;-59
2024/02/01 22:21:16;;;;;;;21.00;8.30;;;;;;;6.28;65.23;99731.92;232355;203;137485;-59
2024/02/01 22:26:19;;;;;;;15.00;7.40;;;;;;;6.23;65.22;99739.50;232255;200;151400;-58
2024/02/01 22:31:23;;;;;;;17.90;7.00;;;;;;;6.24;65.28;99740.70;232321;203;138210;-58
2024/02/01 22:36:27;;;;;;;11.50;6.80;;;;;;;6.24;65.07;99739.96;232305;200;136881;-59
2024/02/01 22:41:30;;;;;;;16.60;7.00;;;;;;;6.25;64.88;99739.77;232233;203;151520;-60
2024/02/01 22:46:33;;;;;;;14.50;6.90;;;;;;;6.27;64.67;99743.91;232298;199;137078;-59
2024/02/01 22:51:37;;;;;;;14.90;6.70;;;;;;;6.31;64.77;99740.28;232357;203;140104;-59
2024/02/01 22:56:40;;;;;;;17.00;6.60;;;;;;;6.33;64.47;99738.96;232308;200;152044;-59
2024/02/01 23:01:47;;;;;;;14.30;6.70;;;;;;;6.35;64.30;99738.56;232279;200;136966;-59
2024/02/01 23:06:51;;;;;;;18.90;7.20;;;;;;;6.33;64.43;99745.46;232434;203;137837;-60
2024/02/01 23:11:54;;;;;;;18.80;6.70;;;;;;;6.29;64.27;99741.05;232292;200;151486;-59
2024/02/01 23:16:58;;;;;;;15.30;6.80;;;;;;;6.24;64.45;99729.73;232195;203;137636;-59
2024/02/01 23:22:01;;;;;;;14.00;6.30;;;;;;;6.26;64.09;99727.03;232336;200;138370;-57
2024/02/01 23:27:06;;;;;;;14.00;6.10;;;;;;;6.20;64.09;99731.65;232254;197;151414;-57
2024/02/01 23:32:10;;;;;;;15.20;6.10;;;;;;;6.21;63.94;99733.56;232332;197;136561;-58
2024/02/01 23:37:13;;;;;;;14.10;6.10;;;;;;;6.15;63.71;99740.77;232450;200;137701;-60
2024/02/01 23:42:16;;;;;;;15.40;6.20;;;;;;;6.11;63.86;99736.16;232276;203;151617;-60
2024/02/01 23:47:20;;;;;;;12.90;5.20;;;;;;;6.12;63.45;99729.09;232205;203;136947;-60
2024/02/01 23:52:23;;;;;;;14.50;5.00;;;;;;;6.06;63.42;99730.69;232353;197;140296;-59
2024/02/01 23:57:26;;;;;;;13.80;4.90;;;;;;;6.05;63.55;99721.23;232264;203;151325;-60
